createdAt,value
2022-08-22T00:02:03.053Z,100169.19
2022-08-22T00:02:43.872Z,100123.63
2022-08-22T00:02:56.363Z,100123.94
2022-08-22T00:03:03.384Z,100128.06
2022-08-22T00:04:39.227Z,100165.28
2022-08-22T00:07:26.585Z,100170.34
2022-08-22T00:09:57.420Z,100161.00
2022-08-22T00:12:32.776Z,100161.16
2022-08-22T00:15:09.048Z,100158.53
2022-08-22T00:18:01.575Z,100160.03
2022-08-22T00:20:41.447Z,100154.16
2022-08-22T00:23:18.222Z,100158.84
2022-08-22T00:25:53.373Z,100154.41
2022-08-22T00:28:26.644Z,100155.97
2022-08-22T00:30:54.294Z,100150.78
2022-08-22T00:33:27.576Z,100152.47
2022-08-22T00:36:02.963Z,100149.19
2022-08-22T00:38:41.201Z,100150.72
2022-08-22T00:41:27.242Z,100151.72
2022-08-22T00:43:57.210Z,100155.47
2022-08-22T00:46:24.421Z,100151.59
2022-08-22T00:48:57.688Z,100156.22
2022-08-22T00:51:45.127Z,100160.28
2022-08-22T00:54:17.386Z,100153.22
2022-08-22T00:56:48.431Z,100145.50
2022-08-22T00:59:30.590Z,100143.09
2022-08-22T01:02:11.114Z,100141.38
2022-08-22T01:04:49.967Z,100135.22
2022-08-22T01:07:20.178Z,100138.09
2022-08-22T01:09:50.018Z,100132.34
2022-08-22T01:12:30.337Z,100130.34
2022-08-22T01:15:03.645Z,100132.50
2022-08-22T01:17:30.853Z,100126.88
2022-08-22T01:20:00.982Z,100134.53
2022-08-22T01:22:47.093Z,100135.81
2022-08-22T01:25:33.684Z,100130.63
2022-08-22T01:28:19.839Z,100128.63
2022-08-22T01:30:50.039Z,100120.34
2022-08-22T01:33:29.369Z,100122.66
2022-08-22T01:36:03.049Z,100126.09
2022-08-22T01:38:30.217Z,100125.00
2022-08-22T01:41:17.144Z,100113.97
2022-08-22T01:44:03.301Z,100112.13
2022-08-22T01:46:36.605Z,100112.41
2022-08-22T01:49:19.862Z,100111.97
2022-08-22T01:52:02.789Z,100115.56
2022-08-22T01:54:45.348Z,100115.56
2022-08-22T01:57:13.335Z,100114.84
2022-08-22T01:59:46.090Z,100114.41
2022-08-22T02:02:13.186Z,100115.13
2022-08-22T02:04:46.912Z,100106.56
2022-08-22T02:07:20.981Z,100108.97
2022-08-22T02:10:08.396Z,100106.09
2022-08-22T02:12:35.568Z,100107.84
2022-08-22T02:15:14.801Z,100104.34
2022-08-22T02:18:01.149Z,100100.06
2022-08-22T02:20:47.434Z,100101.59
2022-08-22T02:23:21.975Z,100100.00
2022-08-22T02:26:01.463Z,100100.69
2022-08-22T02:28:28.661Z,100095.69
2022-08-22T02:31:02.055Z,100094.41
2022-08-22T02:33:36.060Z,100097.72
2022-08-22T02:36:14.423Z,100088.44
2022-08-22T02:39:01.869Z,100083.28
2022-08-22T02:41:50.169Z,100090.50
2022-08-22T02:44:20.614Z,100076.91
2022-08-22T02:47:06.133Z,100079.91
2022-08-22T02:49:36.476Z,100075.91
2022-08-22T02:52:21.112Z,100085.34
2022-08-22T02:54:48.306Z,100084.06
2022-08-22T02:57:39.503Z,100081.59
2022-08-22T03:00:27.780Z,100077.25
2022-08-22T03:03:00.287Z,100085.84
2022-08-22T03:05:27.912Z,100085.28
2022-08-22T03:08:08.288Z,100092.72
2022-08-22T03:10:40.978Z,100086.25
2022-08-22T03:13:08.132Z,100084.13
2022-08-22T03:15:52.374Z,100091.00
2022-08-22T03:18:22.764Z,100098.19
2022-08-22T03:21:09.459Z,100095.59
2022-08-22T03:23:44.485Z,100098.53
2022-08-22T03:26:17.328Z,100098.78
2022-08-22T03:28:59.283Z,100096.13
2022-08-22T03:31:28.442Z,100092.88
2022-08-22T03:34:13.802Z,100095.59
2022-08-22T03:36:45.745Z,100090.72
2022-08-22T03:39:22.680Z,100096.31
2022-08-22T03:42:12.220Z,100093.59
2022-08-22T03:44:54.242Z,100092.22
2022-08-22T03:47:30.408Z,100083.44
2022-08-22T03:50:09.656Z,100085.00
2022-08-22T03:53:02.798Z,100093.72
2022-08-22T03:55:49.264Z,100090.50
2022-08-22T03:58:42.627Z,100097.66
2022-08-22T04:01:19.475Z,100093.44
2022-08-22T04:03:46.769Z,100096.22
2022-08-22T04:06:21.917Z,100094.22
2022-08-22T04:09:12.690Z,100101.56
2022-08-22T04:11:53.514Z,100102.78
2022-08-22T04:14:29.841Z,100095.88
2022-08-22T04:17:15.630Z,100103.69
2022-08-22T04:20:01.175Z,100101.38
2022-08-22T04:22:46.781Z,100093.31
2022-08-22T04:25:20.005Z,100102.69
2022-08-22T04:28:17.359Z,100093.63
2022-08-22T04:30:47.759Z,100101.59
2022-08-22T04:33:22.236Z,100097.94
2022-08-22T04:36:01.709Z,100098.19
2022-08-22T04:38:44.191Z,100100.72
2022-08-22T04:41:13.893Z,100105.03
2022-08-22T04:43:50.589Z,100101.31
2022-08-22T04:46:33.586Z,100098.13
2022-08-22T04:49:12.209Z,100106.00
2022-08-22T04:51:46.940Z,100104.31
2022-08-22T04:54:32.053Z,100107.59
2022-08-22T04:57:15.928Z,100104.47
2022-08-22T04:59:43.413Z,100110.81
2022-08-22T05:02:11.958Z,100107.59
2022-08-22T05:04:42.966Z,100111.38
2022-08-22T05:07:10.195Z,100119.72
2022-08-22T05:09:39.075Z,100114.75
2022-08-22T05:12:09.174Z,100120.88
2022-08-22T05:14:44.419Z,100123.88
2022-08-22T05:17:15.678Z,100118.03
2022-08-22T05:19:47.023Z,100117.53
2022-08-22T05:22:18.834Z,100116.00
2022-08-22T05:24:48.463Z,100119.44
2022-08-22T05:27:21.083Z,100124.59
2022-08-22T05:29:50.498Z,100129.97
2022-08-22T05:32:29.138Z,100128.03
2022-08-22T05:34:59.390Z,100128.91
2022-08-22T05:37:48.293Z,100131.88
2022-08-22T05:40:19.494Z,100131.34
2022-08-22T05:42:47.027Z,100130.31
2022-08-22T05:45:14.585Z,100127.31
2022-08-22T05:47:45.318Z,100130.50
2022-08-22T05:50:15.261Z,100125.28
2022-08-22T05:52:46.989Z,100130.09
2022-08-22T05:55:23.069Z,100129.13
2022-08-22T05:57:53.022Z,100127.66
2022-08-22T06:00:25.784Z,100125.03
2022-08-22T06:03:02.424Z,100130.84
2022-08-22T06:05:32.823Z,100132.09
2022-08-22T06:08:07.549Z,100136.31
2022-08-22T06:10:42.663Z,100140.84
2022-08-22T06:13:13.699Z,100139.31
2022-08-22T06:15:51.726Z,100141.69
2022-08-22T06:18:21.727Z,100136.41
2022-08-22T06:20:52.541Z,100140.44
2022-08-22T06:23:25.095Z,100143.81
2022-08-22T06:25:54.456Z,100142.28
2022-08-22T06:28:23.616Z,100147.72
2022-08-22T06:30:52.994Z,100156.50
2022-08-22T06:33:27.855Z,100148.50
2022-08-22T06:36:45.188Z,100141.63
2022-08-22T06:39:26.051Z,100135.91
2022-08-22T06:41:57.155Z,100145.66
2022-08-22T06:44:27.700Z,100141.41
2022-08-22T06:46:58.407Z,100144.81
2022-08-22T06:49:26.809Z,100145.81
2022-08-22T06:51:57.421Z,100158.84
2022-08-22T06:54:28.671Z,100150.66
2022-08-22T06:56:59.087Z,100149.38
2022-08-22T06:59:29.094Z,100149.75
2022-08-22T07:02:04.191Z,100151.19
2022-08-22T07:04:31.761Z,100154.31
2022-08-22T07:07:00.716Z,100150.41
2022-08-22T07:09:28.180Z,100141.53
2022-08-22T07:11:57.678Z,100141.25
2022-08-22T07:14:27.304Z,100149.00
2022-08-22T07:16:57.247Z,100147.53
2022-08-22T07:19:29.901Z,100143.31
2022-08-22T07:21:58.088Z,100151.75
2022-08-22T07:24:28.238Z,100146.31
2022-08-22T07:26:58.408Z,100146.56
2022-08-22T07:29:30.012Z,100159.00
2022-08-22T07:31:59.723Z,100153.81
2022-08-22T07:34:41.916Z,100153.59
2022-08-22T07:37:38.774Z,100145.53
2022-08-22T07:40:24.902Z,100143.34
2022-08-22T07:42:52.131Z,100145.16
2022-08-22T07:45:33.520Z,100140.78
2022-08-22T07:48:30.308Z,100142.03
2022-08-22T07:51:03.711Z,100141.94
2022-08-22T07:53:49.492Z,100146.00
2022-08-22T07:56:21.240Z,100142.00
2022-08-22T07:58:52.684Z,100140.47
2022-08-22T08:01:21.658Z,100140.66
2022-08-22T08:03:53.625Z,100141.25
2022-08-22T08:06:23.184Z,100151.06
2022-08-22T08:08:51.763Z,100145.47
2022-08-22T08:11:21.652Z,100149.97
2022-08-22T08:13:53.085Z,100143.50
2022-08-22T08:16:23.042Z,100144.31
2022-08-22T08:18:52.761Z,100146.41
2022-08-22T08:21:29.028Z,100138.81
2022-08-22T08:23:57.080Z,100142.97
2022-08-22T08:26:31.105Z,100147.59
2022-08-22T08:28:59.460Z,100149.59
2022-08-22T08:31:32.821Z,100145.50
2022-08-22T08:34:05.189Z,100146.41
2022-08-22T08:36:47.685Z,100144.16
2022-08-22T08:39:18.405Z,100143.63
2022-08-22T08:41:54.682Z,100151.44
2022-08-22T08:44:40.272Z,100149.44
2022-08-22T08:47:26.104Z,100149.91
2022-08-22T08:49:53.261Z,100144.78
2022-08-22T08:52:20.424Z,100149.47
2022-08-22T08:54:55.567Z,100142.97
2022-08-22T08:57:41.117Z,100141.81
2022-08-22T09:00:17.085Z,100140.28
2022-08-22T09:03:09.962Z,100133.44
2022-08-22T09:05:56.539Z,100138.56
2022-08-22T09:08:24.747Z,100134.22
2022-08-22T09:10:57.960Z,100132.69
2022-08-22T09:13:25.191Z,100132.34
2022-08-22T09:16:13.182Z,100115.94
2022-08-22T09:18:46.239Z,100123.59
2022-08-22T09:21:31.525Z,100124.09
2022-08-22T09:24:17.723Z,100121.69
2022-08-22T09:26:46.569Z,100120.06
2022-08-22T09:29:33.046Z,100116.63
2022-08-22T09:32:23.800Z,100112.31
2022-08-22T09:34:57.804Z,100118.38
2022-08-22T09:37:32.176Z,100106.38
2022-08-22T09:40:04.624Z,100110.72
2022-08-22T09:42:35.248Z,100108.06
2022-08-22T09:45:11.798Z,100099.13
2022-08-22T09:47:46.963Z,100103.97
2022-08-22T09:50:19.941Z,100100.03
2022-08-22T09:52:47.169Z,100103.78
2022-08-22T09:55:35.594Z,100092.31
2022-08-22T09:58:16.279Z,100097.19
2022-08-22T10:00:54.682Z,100098.13
2022-08-22T10:03:28.701Z,100101.53
2022-08-22T10:06:01.194Z,100089.09
2022-08-22T10:08:31.442Z,100087.34
2022-08-22T10:11:13.992Z,100089.88
2022-08-22T10:13:57.553Z,100090.00
2022-08-22T10:16:37.042Z,100086.22
2022-08-22T10:19:18.024Z,100084.41
2022-08-22T10:21:51.381Z,100075.31
2022-08-22T10:24:25.082Z,100083.19
2022-08-22T10:26:54.566Z,100079.91
2022-08-22T10:29:38.256Z,100076.28
2022-08-22T10:32:27.113Z,100070.91
2022-08-22T10:34:56.880Z,100079.66
2022-08-22T10:37:30.655Z,100072.66
2022-08-22T10:40:10.891Z,100067.22
2022-08-22T10:42:47.303Z,100062.78
2022-08-22T10:45:36.126Z,100062.56
2022-08-22T10:48:39.433Z,100063.91
2022-08-22T10:51:08.803Z,100066.31
2022-08-22T10:53:43.861Z,100058.94
2022-08-22T10:56:13.833Z,100063.75
2022-08-22T10:58:55.550Z,100056.72
2022-08-22T11:01:38.426Z,100051.22
2022-08-22T11:04:15.146Z,100047.66
2022-08-22T11:06:46.891Z,100049.91
2022-08-22T11:09:37.131Z,100035.84
2022-08-22T11:12:35.039Z,100045.81
2022-08-22T11:15:24.138Z,100042.00
2022-08-22T11:18:16.940Z,100037.88
2022-08-22T11:20:44.130Z,100031.00
2022-08-22T11:23:35.900Z,100035.25
2022-08-22T11:26:13.439Z,100026.13
2022-08-22T11:28:52.871Z,100031.81
2022-08-22T11:31:31.665Z,100033.16
2022-08-22T11:34:30.314Z,100029.13
2022-08-22T11:37:23.756Z,100029.81
2022-08-22T11:40:20.809Z,100032.19
2022-08-22T11:43:20.481Z,100034.19
2022-08-22T11:45:48.977Z,100026.75
2022-08-22T11:48:22.217Z,100030.84
2022-08-22T11:51:13.218Z,100015.88
2022-08-22T11:53:50.964Z,100013.00
2022-08-22T11:56:32.856Z,100015.22
2022-08-22T11:59:07.367Z,100010.75
2022-08-22T12:01:41.749Z,100002.84
2022-08-22T12:04:12.758Z,99992.19
2022-08-22T12:06:59.014Z,99993.56
2022-08-22T12:09:44.823Z,99991.75
2022-08-22T12:12:26.207Z,99992.44
2022-08-22T12:14:54.681Z,99993.13
2022-08-22T12:17:56.053Z,99989.44
2022-08-22T12:20:45.551Z,99990.78
2022-08-22T12:23:18.796Z,99995.25
2022-08-22T12:26:10.947Z,99986.69
2022-08-22T12:28:43.342Z,99988.38
2022-08-22T12:31:19.777Z,99984.94
2022-08-22T12:34:06.570Z,99985.59
2022-08-22T12:36:52.044Z,99981.81
2022-08-22T12:39:24.425Z,99979.44
2022-08-22T12:42:04.187Z,99985.41
2022-08-22T12:44:41.332Z,99980.59
2022-08-22T12:47:18.888Z,99988.47
2022-08-22T12:49:57.545Z,99972.53
2022-08-22T12:52:28.101Z,99972.53
2022-08-22T12:55:04.472Z,99976.75
2022-08-22T12:57:54.192Z,99969.88
2022-08-22T13:00:22.965Z,99983.22
2022-08-22T13:02:54.764Z,99968.78
2022-08-22T13:05:24.740Z,99970.47
2022-08-22T13:07:55.785Z,99971.31
2022-08-22T13:10:33.203Z,99970.22
2022-08-22T13:13:01.159Z,99968.53
2022-08-22T13:15:53.471Z,99954.22
2022-08-22T13:18:30.511Z,99959.25
2022-08-22T13:21:00.990Z,99952.78
2022-08-22T13:23:31.768Z,99952.59
2022-08-22T13:26:10.567Z,99948.50
2022-08-22T13:28:44.661Z,99942.31
2022-08-22T13:31:40.196Z,99943.38
2022-08-22T13:34:13.296Z,99945.19
2022-08-22T13:36:51.637Z,99940.38
2022-08-22T13:39:25.964Z,99950.16
2022-08-22T13:41:55.454Z,99940.22
2022-08-22T13:44:32.187Z,99944.16
2022-08-22T13:47:14.368Z,99937.34
2022-08-22T13:49:46.868Z,99928.78
2022-08-22T13:52:29.969Z,99927.09
2022-08-22T13:55:00.735Z,99920.09
2022-08-22T13:57:31.484Z,99923.50
2022-08-22T14:00:06.925Z,99923.13
2022-08-22T14:02:53.413Z,99922.25
2022-08-22T14:05:41.345Z,99912.50
2022-08-22T14:08:14.464Z,99908.53
2022-08-22T14:10:52.195Z,99915.56
2022-08-22T14:13:32.010Z,99909.22
2022-08-22T14:16:03.416Z,99912.25
2022-08-22T14:18:36.447Z,99908.84
2022-08-22T14:21:19.044Z,99909.09
2022-08-22T14:23:50.084Z,99909.09
2022-08-22T14:26:32.823Z,99912.03
2022-08-22T14:29:06.873Z,99908.06
2022-08-22T14:31:36.043Z,99904.84
2022-08-22T14:34:10.360Z,99903.81
2022-08-22T14:36:44.379Z,99903.31
2022-08-22T14:39:21.010Z,99911.84
2022-08-22T14:42:10.036Z,99915.44
2022-08-22T14:44:59.143Z,99906.16
2022-08-22T14:47:54.130Z,99900.31
2022-08-22T14:50:32.158Z,99903.03
2022-08-22T14:53:25.547Z,99898.78
2022-08-22T14:55:55.823Z,99902.09
2022-08-22T14:58:26.527Z,99901.59
2022-08-22T15:00:56.348Z,99890.81
2022-08-22T15:03:26.316Z,99893.56
2022-08-22T15:05:54.196Z,99888.91
2022-08-22T15:08:24.384Z,99888.06
2022-08-22T15:11:25.186Z,99890.81
2022-08-22T15:13:55.737Z,99889.09
2022-08-22T15:16:49.679Z,99882.56
2022-08-22T15:19:25.541Z,99880.88
2022-08-22T15:22:07.851Z,99878.31
2022-08-22T15:24:40.083Z,99885.38
2022-08-22T15:27:10.433Z,99873.75
2022-08-22T15:29:48.361Z,99880.44
2022-08-22T15:32:19.811Z,99870.84
2022-08-22T15:34:52.553Z,99872.41
2022-08-22T15:37:19.824Z,99868.59
2022-08-22T15:39:59.257Z,99868.25
2022-08-22T15:42:30.738Z,99868.41
2022-08-22T15:44:59.163Z,99862.28
2022-08-22T15:47:41.637Z,99862.47
2022-08-22T15:50:15.432Z,99865.19
2022-08-22T15:53:05.209Z,99860.72
2022-08-22T15:55:35.549Z,99865.53
2022-08-22T15:58:13.017Z,99875.66
2022-08-22T16:00:45.207Z,99874.44
2022-08-22T16:03:26.979Z,99868.28
2022-08-22T16:05:59.466Z,99862.16
2022-08-22T16:08:33.077Z,99865.06
2022-08-22T16:11:03.853Z,99867.34
2022-08-22T16:13:31.293Z,99870.25
2022-08-22T16:16:04.354Z,99867.88
2022-08-22T16:18:34.488Z,99865.13
2022-08-22T16:21:05.067Z,99867.03
2022-08-22T16:23:50.931Z,99864.28
2022-08-22T16:26:21.032Z,99868.44
2022-08-22T16:29:20.840Z,99866.91
2022-08-22T16:31:48.357Z,99874.47
2022-08-22T16:34:15.745Z,99872.56
2022-08-22T16:36:48.831Z,99871.06
2022-08-22T16:39:22.550Z,99876.53
2022-08-22T16:41:55.151Z,99876.72
2022-08-22T16:44:28.559Z,99883.41
2022-08-22T16:47:16.004Z,99882.75
2022-08-22T16:49:49.179Z,99882.25
2022-08-22T16:52:25.924Z,99884.53
2022-08-22T16:54:53.292Z,99885.72
2022-08-22T16:57:24.358Z,99885.91
2022-08-22T17:00:11.239Z,99883.53
2022-08-22T17:02:57.144Z,99879.28
2022-08-22T17:05:36.882Z,99889.22
2022-08-22T17:08:25.144Z,99884.91
2022-08-22T17:10:57.552Z,99889.72
2022-08-22T17:13:26.312Z,99878.94
2022-08-22T17:16:02.032Z,99875.50
2022-08-22T17:18:29.249Z,99881.19
2022-08-22T17:21:12.385Z,99881.19
2022-08-22T17:23:58.487Z,99881.34
2022-08-22T17:26:28.814Z,99875.56
2022-08-22T17:28:56.086Z,99880.56
2022-08-22T17:31:26.509Z,99882.97
2022-08-22T17:34:12.693Z,99880.59
2022-08-22T17:36:58.622Z,99885.56
2022-08-22T17:39:37.442Z,99882.69
2022-08-22T17:42:23.493Z,99877.75
2022-08-22T17:44:50.675Z,99885.66
2022-08-22T17:47:19.996Z,99893.53
2022-08-22T17:49:53.945Z,99887.38
2022-08-22T17:52:41.125Z,99896.31
2022-08-22T17:55:14.077Z,99897.69
2022-08-22T17:57:44.342Z,99898.19
2022-08-22T18:00:26.087Z,99902.13
2022-08-22T18:03:13.530Z,99904.56
2022-08-22T18:06:01.229Z,99909.69
2022-08-22T18:11:30.226Z,99910.06
2022-08-22T18:14:21.405Z,99913.31
2022-08-22T18:16:52.223Z,99921.88
2022-08-22T18:19:38.092Z,99923.75
2022-08-22T18:22:13.210Z,99926.00
2022-08-22T18:24:51.078Z,99930.28
2022-08-22T18:27:34.297Z,99935.75
2022-08-22T18:30:14.396Z,99933.00
2022-08-22T18:32:41.681Z,99938.84
2022-08-22T18:35:22.902Z,99939.19
2022-08-22T18:37:54.856Z,99947.34
2022-08-22T18:40:28.629Z,99948.91
2022-08-22T18:42:58.913Z,99943.94
2022-08-22T18:45:44.819Z,99948.56
2022-08-22T18:48:36.933Z,99955.25
2022-08-22T18:51:24.615Z,99960.72
2022-08-22T18:54:02.217Z,99960.00
2022-08-22T18:56:41.974Z,99965.66
2022-08-22T18:59:09.137Z,99963.59
2022-08-22T19:02:01.279Z,99967.53
2022-08-22T19:04:34.606Z,99975.75
2022-08-22T19:07:12.284Z,99974.34
2022-08-22T19:09:58.174Z,99989.91
2022-08-22T19:12:44.091Z,99990.94
2022-08-22T19:15:17.765Z,99993.66
2022-08-22T19:17:59.201Z,99997.41
2022-08-22T19:21:03.676Z,100003.91
2022-08-22T19:23:37.479Z,100001.16
2022-08-22T19:26:23.389Z,100002.22
2022-08-22T19:28:51.492Z,100005.31
2022-08-22T19:31:18.767Z,100012.13
2022-08-22T19:33:48.345Z,100008.19
2022-08-22T19:36:36.189Z,100010.06
2022-08-22T19:39:08.863Z,100009.38
2022-08-22T19:41:36.557Z,100016.75
2022-08-22T19:44:03.972Z,100018.97
2022-08-22T19:46:39.440Z,100020.84
2022-08-22T19:49:21.009Z,100024.44
2022-08-22T19:51:59.672Z,100021.34
2022-08-22T19:54:27.248Z,100025.97
2022-08-22T19:57:14.814Z,100024.25
2022-08-22T20:00:00.260Z,100035.38
2022-08-22T20:02:37.980Z,100041.31
2022-08-22T20:05:28.865Z,100042.16
2022-08-22T20:07:56.193Z,100042.78
2022-08-22T20:10:47.088Z,100047.91
2022-08-22T20:13:25.394Z,100053.72
2022-08-22T20:16:13.332Z,100054.88
2022-08-22T20:19:00.150Z,100060.03
2022-08-22T20:21:51.054Z,100063.56
2022-08-22T20:24:21.125Z,100063.34
2022-08-22T20:27:12.159Z,100067.09
2022-08-22T20:29:39.771Z,100063.00
2022-08-22T20:32:07.015Z,100062.97
2022-08-22T20:34:38.117Z,100064.69
2022-08-22T20:37:35.831Z,100071.41
2022-08-22T20:40:08.118Z,100085.56
2022-08-22T20:42:54.861Z,100079.16
2022-08-22T20:45:25.143Z,100083.75
2022-08-22T20:47:56.885Z,100080.84
2022-08-22T20:50:25.944Z,100080.00
2022-08-22T20:53:11.452Z,100082.56
2022-08-22T20:55:38.705Z,100085.69
2022-08-22T20:58:17.973Z,100084.34
2022-08-22T21:00:48.362Z,100083.53
2022-08-22T21:03:27.346Z,100091.75
2022-08-22T21:05:54.626Z,100091.84
2022-08-22T21:08:24.285Z,100090.59
2022-08-22T21:11:17.247Z,100095.00
2022-08-22T21:13:44.888Z,100089.69
2022-08-22T21:16:16.540Z,100096.66
2022-08-22T21:18:52.077Z,100096.31
2022-08-22T21:21:26.763Z,100097.50
2022-08-22T21:23:59.929Z,100099.91
2022-08-22T21:26:34.026Z,100104.06
2022-08-22T21:29:01.256Z,100106.00
2022-08-22T21:31:30.285Z,100097.41
2022-08-22T21:33:57.740Z,100106.94
2022-08-22T21:36:27.567Z,100099.91
2022-08-22T21:38:59.948Z,100102.47
2022-08-22T21:41:42.277Z,100111.06
2022-08-22T21:44:27.647Z,100108.50
2022-08-22T21:46:55.366Z,100099.28
2022-08-22T21:49:29.291Z,100105.06
2022-08-22T21:51:56.507Z,100110.63
2022-08-22T21:54:29.721Z,100110.13
2022-08-22T21:56:58.387Z,100113.72
2022-08-22T21:59:25.670Z,100117.28
2022-08-22T22:01:55.797Z,100117.38
2022-08-22T22:04:23.027Z,100123.00
2022-08-22T22:06:50.273Z,100117.16
2022-08-22T22:09:17.516Z,100123.25
2022-08-22T22:11:44.721Z,100119.88
2022-08-22T22:14:11.962Z,100125.63
2022-08-22T22:16:39.280Z,100122.53
2022-08-22T22:19:07.773Z,100131.41
2022-08-22T22:21:35.187Z,100132.75
2022-08-22T22:24:02.604Z,100133.34
2022-08-22T22:26:30.816Z,100145.66
2022-08-22T22:28:59.151Z,100142.66
2022-08-22T22:31:26.487Z,100142.25
2022-08-22T22:33:54.065Z,100143.66
2022-08-22T22:36:23.669Z,100147.13
2022-08-22T22:38:52.051Z,100145.00
2022-08-22T22:41:20.394Z,100139.47
2022-08-22T22:43:47.618Z,100144.75
2022-08-22T22:46:14.885Z,100140.44
2022-08-22T22:48:42.258Z,100149.75
2022-08-22T22:51:10.751Z,100152.06
2022-08-22T22:53:40.314Z,100158.16
2022-08-22T22:56:12.330Z,100157.59
2022-08-22T22:58:39.673Z,100159.19
2022-08-22T23:01:09.851Z,100158.59
2022-08-22T23:03:37.274Z,100162.63
2022-08-22T23:06:04.843Z,100155.88
2022-08-22T23:08:32.122Z,100157.06
2022-08-22T23:10:59.518Z,100156.34
2022-08-22T23:13:26.724Z,100158.22
2022-08-22T23:15:53.937Z,100159.53
2022-08-22T23:18:21.176Z,100158.53
2022-08-22T23:20:57.629Z,100168.28
2022-08-22T23:23:25.393Z,100166.28
2022-08-22T23:25:52.613Z,100161.53
2022-08-22T23:28:19.869Z,100165.00
2022-08-22T23:30:47.034Z,100163.69
2022-08-22T23:33:15.072Z,100172.28
2022-08-22T23:35:42.262Z,100163.88
2022-08-22T23:38:09.523Z,100166.28
2022-08-22T23:40:36.717Z,100166.59
2022-08-22T23:43:04.367Z,100162.16
2022-08-22T23:45:31.619Z,100167.31
2022-08-22T23:47:58.989Z,100164.41
2022-08-22T23:50:26.308Z,100156.94
2022-08-22T23:52:53.538Z,100164.56
2022-08-22T23:55:20.813Z,100156.84
2022-08-22T23:57:48.128Z,100160.25
